Time;durP1;ratioP1;P1;durP2;ratioP2;P2;SDS_P1;SDS_P2;PMS_P1;PMS_P2;Temp;Humidity;BMP_temperature;BMP_pressure;BME280_temperature;BME280_humidity;BME280_pressure;Samples;Min_cycle;Max_cycle;Signal;HPM_P1;HPM_P2
2023/11/25 00:00:45;;;;;;;0.30;0.20;;;;;;;5.19;93.14;99588.38;5011813;28;20503;-58
2023/11/25 00:03:12;;;;;;;0.30;0.20;;;;;;;4.96;93.22;99590.56;5011884;28;20453;-58
2023/11/25 00:05:39;;;;;;;0.30;0.10;;;;;;;4.83;92.73;99597.78;5012187;28;20805;-57
2023/11/25 00:08:06;;;;;;;0.30;0.20;;;;;;;5.00;93.50;99606.28;5011810;28;20863;-58
2023/11/25 00:10:33;;;;;;;0.30;0.20;;;;;;;4.66;94.45;99615.59;5011961;28;20471;-57
2023/11/25 00:13:00;;;;;;;0.30;0.20;;;;;;;4.70;94.10;99615.53;5011774;28;20460;-58
2023/11/25 00:15:26;;;;;;;0.30;0.10;;;;;;;4.85;93.88;99617.06;5011619;28;20463;-58
2023/11/25 00:17:54;;;;;;;0.30;0.10;;;;;;;5.08;93.07;99627.22;5015327;28;20448;-58
2023/11/25 00:20:22;;;;;;;0.30;0.20;;;;;;;4.92;93.77;99637.13;5011563;28;20480;-58
2023/11/25 00:22:48;;;;;;;0.30;0.20;;;;;;;4.95;93.39;99630.97;5011936;28;20448;-58
2023/11/25 00:25:15;;;;;;;0.30;0.10;;;;;;;4.92;93.20;99644.16;5011825;28;20453;-58
2023/11/25 00:27:42;;;;;;;0.30;0.10;;;;;;;5.00;93.04;99651.03;5011621;28;20499;-58
2023/11/25 00:30:10;;;;;;;0.30;0.20;;;;;;;5.10;93.28;99654.41;5011638;28;20559;-58
2023/11/25 00:32:40;;;;;;;0.30;0.10;;;;;;;5.02;92.85;99651.00;5011816;28;20480;-58
2023/11/25 00:35:08;;;;;;;0.30;0.10;;;;;;;4.83;92.88;99658.34;5011492;28;20861;-58
2023/11/25 00:37:35;;;;;;;0.30;0.20;;;;;;;4.78;93.02;99664.56;5011647;28;20456;-58
2023/11/25 00:40:16;;;;;;;0.30;0.20;;;;;;;4.87;93.65;99675.81;5011652;28;20472;-58
2023/11/25 00:42:43;;;;;;;0.30;0.10;;;;;;;4.51;94.38;99673.72;5011537;28;20448;-58
2023/11/25 00:45:10;;;;;;;0.30;0.20;;;;;;;4.71;93.80;99679.59;5011784;28;20514;-58
2023/11/25 00:47:40;;;;;;;0.30;0.10;;;;;;;4.63;94.58;99689.34;5011354;28;20522;-57
2023/11/25 00:50:10;;;;;;;0.30;0.10;;;;;;;4.76;94.73;99694.41;5011496;28;20472;-57
2023/11/25 00:52:38;;;;;;;0.30;0.20;;;;;;;4.83;94.44;99692.56;5011580;28;20456;-58
2023/11/25 00:55:06;;;;;;;0.30;0.17;;;;;;;4.95;94.81;99691.53;5011443;28;20941;-58
2023/11/25 00:57:33;;;;;;;0.30;0.20;;;;;;;4.81;94.50;99696.13;5011354;28;20511;-57
2023/11/25 00:59:59;;;;;;;0.30;0.20;;;;;;;4.80;95.08;99699.63;5011352;28;20834;-57
2023/11/25 01:02:27;;;;;;;0.30;0.20;;;;;;;4.92;94.85;99697.69;5002160;28;20464;-58
2023/11/25 01:04:54;;;;;;;0.27;0.10;;;;;;;5.07;94.79;99699.19;5011440;28;20554;-58
2023/11/25 01:07:21;;;;;;;0.30;0.10;;;;;;;4.92;93.93;99708.22;5011448;28;20930;-58
2023/11/25 01:09:47;;;;;;;0.30;0.10;;;;;;;4.98;93.86;99704.63;5010994;28;20496;-57
2023/11/25 01:12:14;;;;;;;0.30;0.20;;;;;;;4.81;93.76;99710.16;5014495;28;20551;-58
2023/11/25 01:14:40;;;;;;;0.30;0.13;;;;;;;4.94;94.84;99711.72;5014532;28;20960;-58
2023/11/25 01:17:08;;;;;;;0.30;0.10;;;;;;;4.80;94.40;99712.78;5014912;28;20457;-58
2023/11/25 01:19:36;;;;;;;0.30;0.20;;;;;;;4.65;94.21;99708.63;5055113;22;21013;-51
2023/11/25 01:22:03;;;;;;;0.30;0.20;;;;;;;4.60;93.50;99713.09;5074108;28;20442;-51
2023/11/25 01:24:30;;;;;;;0.30;0.20;;;;;;;4.72;93.94;99715.56;5073983;28;20491;-51
2023/11/25 01:26:57;;;;;;;0.30;0.20;;;;;;;4.67;93.49;99723.53;5074120;28;20907;-51
2023/11/25 01:29:23;;;;;;;0.30;0.13;;;;;;;4.54;93.71;99718.44;5072308;28;21030;-51
2023/11/25 01:31:49;;;;;;;0.30;0.10;;;;;;;4.51;93.19;99726.34;5062334;28;20546;-51
2023/11/25 01:34:16;;;;;;;0.30;0.17;;;;;;;4.50;93.26;99733.38;5060660;28;20535;-52
2023/11/25 01:36:42;;;;;;;0.30;0.17;;;;;;;4.47;93.64;99731.66;5074054;28;20446;-51
2023/11/25 01:39:09;;;;;;;0.30;0.20;;;;;;;4.61;93.71;99726.22;5073800;28;20476;-51
2023/11/25 01:41:35;;;;;;;0.30;0.20;;;;;;;4.59;93.69;99737.66;5074196;28;20450;-51
2023/11/25 01:44:02;;;;;;;0.30;0.10;;;;;;;4.53;92.66;99735.13;5058013;28;20959;-51
2023/11/25 01:46:37;;;;;;;0.30;0.20;;;;;;;4.46;93.17;99735.19;5071655;28;20863;-51
2023/11/25 01:49:09;;;;;;;0.30;0.10;;;;;;;4.50;92.73;99740.41;5060227;28;20518;-51
2023/11/25 01:51:42;;;;;;;0.30;0.20;;;;;;;4.51;92.39;99735.13;5062180;28;20441;-51
2023/11/25 01:54:13;;;;;;;0.30;0.10;;;;;;;4.66;92.10;99734.94;5053836;28;20500;-50
2023/11/25 01:56:41;;;;;;;0.30;0.20;;;;;;;4.56;92.22;99741.22;5066901;28;20860;-51
2023/11/25 01:59:11;;;;;;;0.30;0.10;;;;;;;4.56;92.40;99743.84;5065572;28;20475;-51
2023/11/25 02:01:37;;;;;;;0.30;0.20;;;;;;;4.42;92.79;99758.94;5067013;28;20438;-51
2023/11/25 02:04:04;;;;;;;0.30;0.20;;;;;;;4.31;92.48;99759.06;5060931;28;20461;-50
2023/11/25 02:06:32;;;;;;;0.30;0.20;;;;;;;4.38;92.05;99765.09;5059351;28;20457;-51
2023/11/25 02:08:58;;;;;;;0.30;0.20;;;;;;;4.30;92.68;99770.47;5053496;28;20495;-52
2023/11/25 02:11:25;;;;;;;0.30;0.20;;;;;;;4.32;92.51;99778.34;5065709;28;20545;-51
2023/11/25 02:13:51;;;;;;;0.27;0.10;;;;;;;4.28;92.78;99776.66;5053220;28;20505;-51
2023/11/25 02:16:20;;;;;;;0.30;0.20;;;;;;;4.21;92.55;99785.47;5053235;28;20973;-50
2023/11/25 02:18:46;;;;;;;0.30;0.13;;;;;;;4.31;92.28;99792.38;5061800;28;20453;-51
2023/11/25 02:21:13;;;;;;;0.30;0.13;;;;;;;4.27;92.58;99798.59;5068311;28;20448;-52
2023/11/25 02:23:40;;;;;;;0.30;0.10;;;;;;;4.36;92.57;99788.81;5073242;28;20449;-51
2023/11/25 02:26:08;;;;;;;0.30;0.20;;;;;;;4.41;92.71;99778.25;5072329;28;20464;-52
2023/11/25 02:28:35;;;;;;;0.20;0.10;;;;;;;4.63;91.89;99781.47;5072967;28;20520;-51
2023/11/25 02:31:03;;;;;;;0.30;0.20;;;;;;;4.57;91.53;99776.28;5072766;28;20458;-51
2023/11/25 02:33:34;;;;;;;0.30;0.20;;;;;;;4.54;91.77;99779.84;5072754;28;20457;-51
2023/11/25 02:36:01;;;;;;;0.30;0.10;;;;;;;4.49;92.25;99775.50;5069521;28;20982;-51
2023/11/25 02:38:28;;;;;;;0.30;0.20;;;;;;;4.40;92.50;99777.38;5062699;28;20859;-51
2023/11/25 02:40:54;;;;;;;0.30;0.10;;;;;;;4.53;92.52;99774.59;5072474;28;20530;-51
2023/11/25 02:43:21;;;;;;;0.30;0.20;;;;;;;4.42;92.93;99780.84;5072645;28;20959;-51
2023/11/25 02:45:48;;;;;;;0.30;0.20;;;;;;;4.41;92.97;99771.22;5072457;28;20492;-51
2023/11/25 02:48:16;;;;;;;0.30;0.10;;;;;;;4.59;92.55;99785.03;5062439;28;20486;-51
2023/11/25 02:50:43;;;;;;;0.30;0.10;;;;;;;4.52;92.19;99776.34;5069806;28;20837;-51
2023/11/25 02:53:10;;;;;;;0.30;0.10;;;;;;;4.42;92.52;99772.97;5053992;28;20465;-51
2023/11/25 02:55:36;;;;;;;0.27;0.13;;;;;;;4.36;92.37;99772.16;5065970;28;20454;-51
2023/11/25 02:58:03;;;;;;;0.30;0.20;;;;;;;4.61;92.05;99768.34;5063751;28;20450;-52
2023/11/25 03:00:30;;;;;;;0.30;0.10;;;;;;;4.65;91.64;99772.66;5072093;28;20505;-51
2023/11/25 03:03:09;;;;;;;0.23;0.13;;;;;;;4.50;92.15;99771.97;5059471;28;20966;-51
2023/11/25 03:05:37;;;;;;;0.30;0.10;;;;;;;4.49;92.53;99770.25;5071626;28;20445;-51
2023/11/25 03:08:05;;;;;;;0.30;0.10;;;;;;;4.55;92.89;99771.06;5072134;28;20450;-51
2023/11/25 03:10:32;;;;;;;0.30;0.20;;;;;;;4.55;92.53;99764.91;5052836;28;21049;-51
2023/11/25 03:12:59;;;;;;;0.30;0.10;;;;;;;4.61;91.96;99757.81;5065548;28;20454;-52
2023/11/25 03:15:25;;;;;;;0.30;0.10;;;;;;;4.58;91.76;99752.59;5065558;28;20579;-51
2023/11/25 03:17:52;;;;;;;0.30;0.17;;;;;;;4.49;92.39;99757.09;5063238;28;20462;-51
2023/11/25 03:20:18;;;;;;;0.30;0.20;;;;;;;4.47;92.44;99750.09;5052101;28;20482;-51
2023/11/25 03:22:45;;;;;;;0.30;0.10;;;;;;;4.45;91.91;99751.88;5065162;28;20962;-51
2023/11/25 03:25:13;;;;;;;0.20;0.10;;;;;;;4.55;91.73;99751.75;5058939;28;20449;-52
2023/11/25 03:27:40;;;;;;;0.27;0.10;;;;;;;4.47;91.98;99750.09;5058279;28;20501;-51
2023/11/25 03:30:07;;;;;;;0.30;0.20;;;;;;;4.60;92.11;99749.94;5056815;28;20495;-51
2023/11/25 03:32:34;;;;;;;0.30;0.20;;;;;;;4.41;91.81;99762.47;5065321;28;20544;-52
2023/11/25 03:35:01;;;;;;;0.30;0.20;;;;;;;4.46;92.51;99785.19;5058585;28;20503;-51
2023/11/25 03:37:27;;;;;;;0.30;0.10;;;;;;;4.55;92.12;99784.22;5058309;28;20618;-51
2023/11/25 03:39:54;;;;;;;0.23;0.20;;;;;;;4.52;92.20;99796.50;5071562;28;20573;-51
2023/11/25 03:42:20;;;;;;;0.20;0.10;;;;;;;4.47;92.29;99802.72;5071499;28;20450;-51
2023/11/25 03:44:47;;;;;;;0.30;0.10;;;;;;;4.47;92.47;99800.09;5075322;28;20635;-51
2023/11/25 03:47:13;;;;;;;0.30;0.20;;;;;;;4.57;91.88;99795.59;5061349;28;20469;-52
2023/11/25 03:49:40;;;;;;;0.20;0.10;;;;;;;4.58;91.28;99804.34;5059753;28;20493;-51
2023/11/25 03:52:07;;;;;;;0.30;0.20;;;;;;;4.42;92.88;99796.66;5064136;28;20462;-51
2023/11/25 03:54:33;;;;;;;0.30;0.20;;;;;;;4.56;92.30;99809.63;5062805;28;20983;-52
2023/11/25 03:57:00;;;;;;;0.20;0.20;;;;;;;4.64;92.04;99810.41;5059444;28;20455;-50
2023/11/25 03:59:27;;;;;;;0.30;0.20;;;;;;;4.57;92.16;99813.13;5051328;28;21059;-51
2023/11/25 04:01:53;;;;;;;0.30;0.20;;;;;;;4.62;91.95;99820.06;5064938;28;20797;-51
2023/11/25 04:04:20;;;;;;;0.20;0.20;;;;;;;4.69;92.72;99815.63;5060155;28;20524;-51
2023/11/25 04:06:47;;;;;;;0.30;0.20;;;;;;;4.78;91.76;99810.22;5071120;28;20446;-51
2023/11/25 04:09:13;;;;;;;0.30;0.20;;;;;;;4.79;91.64;99809.34;5071080;28;20532;-51
2023/11/25 04:11:43;;;;;;;0.30;0.13;;;;;;;4.73;91.79;99805.03;5065707;28;20948;-51
2023/11/25 04:14:09;;;;;;;0.30;0.20;;;;;;;4.73;91.72;99825.22;5071416;28;20536;-51
2023/11/25 04:16:36;;;;;;;0.20;0.10;;;;;;;4.78;91.52;99827.78;5071093;28;21042;-51
2023/11/25 04:19:03;;;;;;;0.30;0.20;;;;;;;4.70;91.54;99834.03;5065273;28;20557;-51
2023/11/25 04:21:29;;;;;;;0.30;0.20;;;;;;;4.67;92.38;99830.56;5052916;28;20438;-52
2023/11/25 04:23:56;;;;;;;0.30;0.20;;;;;;;4.63;92.40;99840.25;5071066;28;20457;-51
2023/11/25 04:26:24;;;;;;;0.30;0.20;;;;;;;4.75;92.36;99833.97;5053797;28;20479;-51
2023/11/25 04:28:51;;;;;;;0.27;0.10;;;;;;;4.76;91.96;99835.69;5061504;28;20494;-51
2023/11/25 04:31:18;;;;;;;0.30;0.20;;;;;;;4.66;92.48;99850.75;5071115;28;20446;-51
2023/11/25 04:33:44;;;;;;;0.30;0.10;;;;;;;4.65;92.62;99850.75;5071172;28;20453;-51
2023/11/25 04:36:11;;;;;;;0.30;0.20;;;;;;;4.75;92.31;99847.13;5066626;28;20454;-51
2023/11/25 04:38:39;;;;;;;0.30;0.20;;;;;;;4.72;92.89;99848.03;5062280;28;20955;-51
2023/11/25 04:41:06;;;;;;;0.30;0.20;;;;;;;4.65;94.14;99845.47;5069928;28;20453;-51
2023/11/25 04:43:32;;;;;;;0.30;0.20;;;;;;;4.57;93.44;99852.63;5071210;28;20805;-51
2023/11/25 04:46:02;;;;;;;0.30;0.20;;;;;;;4.53;94.39;99856.19;5081022;28;20533;-51
2023/11/25 04:48:28;;;;;;;0.30;0.20;;;;;;;4.69;94.01;99853.34;5074642;28;20446;-52
2023/11/25 04:50:55;;;;;;;0.30;0.10;;;;;;;4.80;93.16;99852.31;5073633;28;20456;-51
2023/11/25 04:53:22;;;;;;;0.30;0.20;;;;;;;4.80;93.78;99845.31;5061836;28;20912;-52
2023/11/25 04:55:48;;;;;;;0.30;0.20;;;;;;;4.86;93.59;99844.38;5060431;28;20532;-51
2023/11/25 04:58:15;;;;;;;0.30;0.20;;;;;;;4.73;92.91;99830.47;5074792;28;20446;-51
2023/11/25 05:00:41;;;;;;;0.30;0.10;;;;;;;4.78;93.09;99839.19;5074519;28;20465;-51
2023/11/25 05:03:09;;;;;;;0.30;0.20;;;;;;;4.56;93.98;99837.72;5074482;28;20461;-51
2023/11/25 05:05:36;;;;;;;0.80;0.80;;;;;;;4.51;94.19;99829.84;5074544;28;20470;-51
2023/11/25 05:08:04;;;;;;;0.30;0.20;;;;;;;4.60;94.63;99836.78;5062257;28;20455;-50
2023/11/25 05:10:31;;;;;;;0.30;0.20;;;;;;;4.54;94.28;99835.09;5074084;28;20554;-51
2023/11/25 05:12:57;;;;;;;0.30;0.20;;;;;;;4.70;93.77;99831.41;5074325;28;20450;-53
2023/11/25 05:15:25;;;;;;;0.30;0.13;;;;;;;4.62;93.57;99833.25;5061279;28;20544;-52
2023/11/25 05:17:55;;;;;;;0.20;0.10;;;;;;;4.68;94.07;99845.47;5073553;28;20503;-51
2023/11/25 05:20:21;;;;;;;0.30;0.20;;;;;;;4.68;94.63;99841.06;5061123;28;20480;-51
2023/11/25 05:22:48;;;;;;;0.20;0.20;;;;;;;4.55;94.37;99844.75;5060837;28;20461;-51
2023/11/25 05:25:15;;;;;;;0.20;0.17;;;;;;;4.59;94.75;99838.53;5074304;28;20442;-51
2023/11/25 05:27:42;;;;;;;0.30;0.20;;;;;;;4.66;94.05;99834.06;5058155;28;20477;-51
2023/11/25 05:30:12;;;;;;;0.30;0.20;;;;;;;4.66;93.74;99829.69;5074304;28;20493;-52
2023/11/25 05:32:42;;;;;;;0.30;0.20;;;;;;;4.58;93.95;99828.91;5074068;28;20524;-51
2023/11/25 05:35:12;;;;;;;0.30;0.10;;;;;;;4.53;94.08;99830.75;5074375;28;20453;-51
2023/11/25 05:37:40;;;;;;;0.30;0.10;;;;;;;4.41;94.05;99837.00;5072861;28;20879;-51
2023/11/25 05:40:11;;;;;;;0.30;0.10;;;;;;;4.43;94.09;99832.59;5070398;28;20474;-51
2023/11/25 05:42:41;;;;;;;0.30;0.20;;;;;;;4.42;94.20;99833.47;5071546;28;20803;-51
2023/11/25 05:45:08;;;;;;;0.30;0.13;;;;;;;4.61;93.77;99835.88;5080408;28;20540;-51
2023/11/25 05:47:35;;;;;;;0.30;0.20;;;;;;;4.70;93.23;99830.53;5061395;28;20449;-52
2023/11/25 05:50:03;;;;;;;0.30;0.20;;;;;;;4.45;93.88;99832.56;5054165;28;20490;-51
2023/11/25 05:52:29;;;;;;;0.30;0.20;;;;;;;4.41;94.21;99833.50;5067082;28;20501;-51
2023/11/25 05:54:56;;;;;;;0.30;0.20;;;;;;;4.42;94.22;99822.09;5054387;28;20478;-52
2023/11/25 05:57:22;;;;;;;0.30;0.20;;;;;;;4.39;94.08;99819.50;5057097;28;20452;-51
2023/11/25 05:59:49;;;;;;;0.30;0.20;;;;;;;4.16;94.82;99817.09;5061824;28;20473;-51
2023/11/25 06:02:15;;;;;;;0.20;0.17;;;;;;;4.22;94.57;99822.28;5072430;28;21258;-51
2023/11/25 06:04:42;;;;;;;0.20;0.10;;;;;;;4.26;94.11;99833.66;5073643;28;21056;-51
2023/11/25 06:07:09;;;;;;;0.30;0.20;;;;;;;4.09;94.16;99828.56;5067467;28;20904;-51
2023/11/25 06:09:35;;;;;;;0.27;0.10;;;;;;;4.21;94.19;99827.56;5056918;28;20482;-51
2023/11/25 06:12:02;;;;;;;0.20;0.20;;;;;;;4.06;94.65;99824.19;5060006;28;20938;-51
2023/11/25 06:14:32;;;;;;;0.30;0.20;;;;;;;4.24;95.33;99824.91;5073687;28;20454;-51
2023/11/25 06:17:00;;;;;;;0.30;0.20;;;;;;;3.97;95.78;99828.66;5073433;28;20449;-51
2023/11/25 06:19:29;;;;;;;0.20;0.10;;;;;;;3.96;96.19;99833.06;5065652;28;20470;-52
2023/11/25 06:21:55;;;;;;;0.20;0.10;;;;;;;3.92;95.37;99835.75;5053366;28;20451;-51
2023/11/25 06:24:22;;;;;;;0.20;0.10;;;;;;;4.08;95.99;99830.31;5053604;28;20454;-51
2023/11/25 06:26:49;;;;;;;0.30;0.10;;;;;;;4.30;95.11;99832.75;5071989;28;20477;-51
2023/11/25 06:29:16;;;;;;;0.30;0.10;;;;;;;4.30;95.11;99830.97;5063803;28;20570;-51
2023/11/25 06:31:45;;;;;;;0.30;0.20;;;;;;;4.34;94.54;99835.31;5063751;28;20546;-51
2023/11/25 06:34:12;;;;;;;0.30;0.10;;;;;;;4.26;95.25;99836.31;5072053;28;20943;-50
2023/11/25 06:36:39;;;;;;;0.30;0.10;;;;;;;4.44;94.84;99831.69;5069061;28;20466;-50
2023/11/25 06:39:07;;;;;;;0.30;0.20;;;;;;;4.34;94.96;99831.81;5058451;28;20502;-50
2023/11/25 06:41:34;;;;;;;0.20;0.10;;;;;;;4.43;94.69;99847.50;5064649;28;20473;-52
2023/11/25 06:44:00;;;;;;;0.30;0.10;;;;;;;4.32;94.33;99854.63;5059343;28;20534;-51
2023/11/25 06:46:27;;;;;;;0.30;0.10;;;;;;;4.49;94.99;99859.72;5081419;28;20448;-51
2023/11/25 06:48:54;;;;;;;0.30;0.20;;;;;;;4.50;94.33;99870.22;5058033;28;20979;-51
2023/11/25 06:51:20;;;;;;;0.30;0.10;;;;;;;4.47;94.40;99862.38;5061781;28;20466;-51
2023/11/25 06:53:47;;;;;;;0.27;0.17;;;;;;;4.42;94.03;99854.53;5072449;28;20873;-53
2023/11/25 06:56:16;;;;;;;0.30;0.10;;;;;;;4.35;95.54;99858.09;5063827;28;20462;-51
2023/11/25 06:58:43;;;;;;;0.20;0.20;;;;;;;4.30;94.80;99854.66;5065567;28;20451;-51
2023/11/25 07:01:16;;;;;;;0.20;0.10;;;;;;;4.33;95.15;99859.88;5062383;28;20449;-51
2023/11/25 07:03:42;;;;;;;0.30;0.20;;;;;;;4.18;95.37;99860.03;5072413;28;20448;-50
2023/11/25 07:06:11;;;;;;;0.30;0.10;;;;;;;4.23;95.09;99859.97;5072534;28;20457;-55
2023/11/25 07:08:38;;;;;;;0.20;0.10;;;;;;;4.31;94.82;99866.91;5071450;28;20464;-52
2023/11/25 07:11:10;;;;;;;0.20;0.20;;;;;;;4.33;95.07;99857.25;5072233;28;20497;-56
2023/11/25 07:13:37;;;;;;;0.20;0.10;;;;;;;4.43;94.65;99851.00;5071485;28;20446;-53
2023/11/25 07:16:06;;;;;;;0.20;0.10;;;;;;;4.46;94.59;99844.84;5051369;28;20981;-53
2023/11/25 07:18:34;;;;;;;0.30;0.10;;;;;;;4.40;94.25;99832.63;5054883;28;20458;-52
2023/11/25 07:21:01;;;;;;;0.20;0.20;;;;;;;4.42;94.93;99837.88;5065536;28;20462;-55
2023/11/25 07:23:27;;;;;;;0.20;0.10;;;;;;;4.44;94.34;99851.88;5065108;28;20464;-55
2023/11/25 07:25:56;;;;;;;0.30;0.10;;;;;;;4.46;94.98;99848.34;5070199;28;20485;-55
2023/11/25 07:28:24;;;;;;;0.20;0.10;;;;;;;4.65;94.35;99850.75;5064431;28;20451;-55
2023/11/25 07:30:51;;;;;;;0.20;0.20;;;;;;;4.80;93.92;99852.31;5055466;28;20489;-54
2023/11/25 07:33:18;;;;;;;0.30;0.20;;;;;;;4.74;92.97;99855.91;5071535;28;20503;-54
2023/11/25 07:35:45;;;;;;;0.30;0.13;;;;;;;4.72;93.84;99850.69;5051111;28;20987;-55
2023/11/25 07:38:11;;;;;;;0.30;0.10;;;;;;;4.74;93.42;99855.91;5051723;28;20482;-55
2023/11/25 07:40:38;;;;;;;0.30;0.20;;;;;;;4.69;93.90;99841.94;5051823;28;20497;-55
2023/11/25 07:43:04;;;;;;;0.30;0.20;;;;;;;4.79;93.56;99837.41;5051939;28;20934;-55
2023/11/25 07:45:31;;;;;;;0.30;0.20;;;;;;;4.72;94.06;99849.81;5060652;28;20450;-55
2023/11/25 07:47:58;;;;;;;0.20;0.10;;;;;;;4.79;94.06;99861.97;5063863;28;20455;-55
2023/11/25 07:50:24;;;;;;;0.20;0.10;;;;;;;4.68;93.64;99845.47;5063563;28;20494;-55
2023/11/25 07:52:51;;;;;;;0.20;0.10;;;;;;;4.73;94.10;99841.88;5067692;28;20549;-55
2023/11/25 07:55:18;;;;;;;0.20;0.10;;;;;;;4.78;94.13;99854.09;5055902;28;20901;-55
2023/11/25 07:57:47;;;;;;;0.27;0.20;;;;;;;4.75;93.39;99850.63;5059289;28;20455;-55
2023/11/25 08:00:19;;;;;;;0.30;0.20;;;;;;;4.91;93.18;99851.31;5066923;28;20462;-54
2023/11/25 08:02:49;;;;;;;0.30;0.20;;;;;;;4.84;93.40;99840.88;5068799;28;20537;-55
2023/11/25 08:05:22;;;;;;;0.30;0.13;;;;;;;4.92;92.83;99845.16;5061627;28;20472;-55
2023/11/25 08:07:51;;;;;;;0.20;0.10;;;;;;;5.02;92.80;99843.28;5060852;28;20454;-54
2023/11/25 08:10:20;;;;;;;0.20;0.17;;;;;;;4.88;92.64;99851.34;5057594;28;20517;-54
2023/11/25 08:12:46;;;;;;;0.30;0.20;;;;;;;4.93;93.46;99841.63;5054903;28;20826;-54
2023/11/25 08:15:13;;;;;;;0.20;0.20;;;;;;;5.10;92.83;99848.44;5069987;28;20449;-55
2023/11/25 08:17:43;;;;;;;0.27;0.10;;;;;;;5.12;92.93;99846.66;5070356;28;20998;-55
2023/11/25 08:20:10;;;;;;;0.30;0.20;;;;;;;4.99;93.00;99849.47;5059069;28;20477;-55
2023/11/25 08:22:38;;;;;;;0.30;0.10;;;;;;;5.09;92.72;99847.59;5075434;28;20461;-55
2023/11/25 08:25:08;;;;;;;0.20;0.10;;;;;;;5.12;93.73;99844.91;5061238;28;20943;-55
2023/11/25 08:27:36;;;;;;;0.30;0.20;;;;;;;5.11;92.77;99844.91;5061938;28;20989;-54
2023/11/25 08:30:06;;;;;;;0.30;0.20;;;;;;;5.17;92.73;99842.19;5064371;28;20504;-55
2023/11/25 08:32:33;;;;;;;0.30;0.20;;;;;;;5.29;92.95;99840.25;5061511;28;20549;-55
2023/11/25 08:35:00;;;;;;;0.30;0.10;;;;;;;5.30;92.77;99835.84;5056586;28;20824;-55
2023/11/25 08:37:27;;;;;;;0.30;0.10;;;;;;;5.26;92.28;99842.06;5062676;28;20543;-55
2023/11/25 08:39:56;;;;;;;0.30;0.20;;;;;;;5.36;91.82;99835.78;5068609;28;20989;-54
2023/11/25 08:42:26;;;;;;;0.30;0.20;;;;;;;5.43;92.88;99841.81;5060324;28;20556;-55
2023/11/25 08:44:52;;;;;;;0.30;0.20;;;;;;;5.52;92.67;99842.56;5073371;28;20485;-55
2023/11/25 08:47:19;;;;;;;0.30;0.20;;;;;;;5.58;91.42;99839.81;5069838;28;20457;-54
2023/11/25 08:49:46;;;;;;;0.30;0.10;;;;;;;5.55;90.49;99842.50;5064073;28;20477;-55
2023/11/25 08:52:12;;;;;;;0.30;0.10;;;;;;;5.63;90.96;99834.50;5074837;28;20450;-55
2023/11/25 08:54:39;;;;;;;0.30;0.10;;;;;;;5.49;90.84;99832.06;5073426;28;20540;-55
2023/11/25 08:57:08;;;;;;;0.30;0.10;;;;;;;5.44;91.75;99825.09;5065163;28;20549;-55
2023/11/25 08:59:35;;;;;;;0.30;0.20;;;;;;;5.36;92.66;99843.69;5063095;28;20474;-55
2023/11/25 09:02:04;;;;;;;0.30;0.17;;;;;;;5.27;92.13;99842.03;5071737;28;20455;-55
2023/11/25 09:04:35;;;;;;;0.30;0.10;;;;;;;5.57;91.89;99843.34;5074596;28;20533;-56
2023/11/25 09:07:02;;;;;;;0.30;0.10;;;;;;;5.67;91.74;99840.56;5074421;28;20451;-55
2023/11/25 09:09:28;;;;;;;0.30;0.20;;;;;;;5.75;90.91;99841.31;5074640;28;20589;-55
2023/11/25 09:11:55;;;;;;;0.30;0.20;;;;;;;5.70;91.53;99854.56;5074247;28;20492;-56
2023/11/25 09:14:21;;;;;;;0.30;0.10;;;;;;;5.93;91.13;99855.09;5071430;28;20966;-55
2023/11/25 09:16:50;;;;;;;0.30;0.20;;;;;;;6.07;91.01;99860.16;5060955;28;20495;-56
2023/11/25 09:19:17;;;;;;;0.30;0.20;;;;;;;5.95;90.94;99863.00;5067897;28;20470;-55
2023/11/25 09:21:44;;;;;;;0.30;0.20;;;;;;;6.04;90.44;99857.56;5056830;28;20537;-55
2023/11/25 09:24:11;;;;;;;0.30;0.20;;;;;;;5.96;90.34;99853.31;5067076;28;20449;-56
2023/11/25 09:26:38;;;;;;;0.30;0.20;;;;;;;6.09;91.58;99855.72;5072980;28;20545;-56
2023/11/25 09:29:05;;;;;;;0.30;0.10;;;;;;;6.01;90.62;99857.59;5074062;28;21008;-55
2023/11/25 09:31:32;;;;;;;0.30;0.20;;;;;;;6.09;91.40;99863.63;5059729;28;20521;-56
2023/11/25 09:34:02;;;;;;;0.30;0.10;;;;;;;5.98;92.11;99854.16;5073037;28;20962;-55
2023/11/25 09:36:30;;;;;;;0.30;0.20;;;;;;;5.92;92.36;99853.38;5066749;28;20459;-55
2023/11/25 09:38:56;;;;;;;0.30;0.10;;;;;;;6.00;92.92;99857.63;5054684;28;20546;-55
2023/11/25 09:41:23;;;;;;;0.30;0.20;;;;;;;6.06;92.79;99854.91;5069438;28;20446;-55
2023/11/25 09:43:50;;;;;;;0.30;0.20;;;;;;;5.91;93.36;99845.50;5072424;28;20450;-55
2023/11/25 09:46:17;;;;;;;0.30;0.20;;;;;;;5.98;93.08;99846.25;5069626;28;20821;-55
2023/11/25 09:48:45;;;;;;;0.30;0.20;;;;;;;6.03;93.50;99844.38;5059377;28;20446;-56
2023/11/25 09:51:13;;;;;;;0.30;0.20;;;;;;;6.24;92.68;99836.97;5054018;28;20563;-55
2023/11/25 09:53:42;;;;;;;0.30;0.20;;;;;;;6.13;93.43;99841.56;5068283;28;20538;-55
2023/11/25 09:56:11;;;;;;;0.30;0.20;;;;;;;6.10;93.75;99836.34;5065412;28;20809;-55
2023/11/25 09:58:38;;;;;;;0.30;0.20;;;;;;;6.11;94.46;99834.56;5068871;28;20849;-55
2023/11/25 10:01:05;;;;;;;0.30;0.17;;;;;;;6.17;93.48;99826.56;5072586;28;20518;-54
2023/11/25 10:03:34;;;;;;;0.30;0.20;;;;;;;6.38;93.25;99820.00;5069631;28;21020;-55
2023/11/25 10:06:01;;;;;;;0.30;0.20;;;;;;;6.32;93.40;99820.13;5072459;28;20453;-55
2023/11/25 10:08:28;;;;;;;0.30;0.20;;;;;;;6.35;92.88;99822.72;5067257;28;20455;-55
2023/11/25 10:11:06;;;;;;;0.30;0.20;;;;;;;6.10;94.00;99817.88;5063413;28;20529;-54
2023/11/25 10:13:39;;;;;;;0.30;0.20;;;;;;;6.16;93.75;99806.31;5058336;28;20450;-54
2023/11/25 10:16:07;;;;;;;0.30;0.10;;;;;;;6.31;93.31;99811.34;5073552;28;20515;-55
2023/11/25 10:18:37;;;;;;;0.30;0.20;;;;;;;6.43;93.01;99812.84;5062806;28;20469;-55
2023/11/25 10:21:06;;;;;;;0.30;0.10;;;;;;;6.26;93.27;99810.53;5065280;28;20832;-55
2023/11/25 10:23:34;;;;;;;0.30;0.10;;;;;;;6.27;93.46;99809.63;5059338;28;20461;-55
2023/11/25 10:26:04;;;;;;;0.30;0.20;;;;;;;6.27;93.50;99811.41;5059669;28;20493;-55
2023/11/25 10:28:35;;;;;;;0.30;0.20;;;;;;;6.41;92.46;99796.19;5068876;28;20955;-55
2023/11/25 10:31:09;;;;;;;0.30;0.20;;;;;;;6.46;91.90;99792.56;5069038;28;20576;-55
2023/11/25 10:33:40;;;;;;;0.30;0.20;;;;;;;6.52;92.87;99804.75;5066492;28;20635;-55
2023/11/25 10:36:08;;;;;;;0.30;0.20;;;;;;;6.61;92.11;99803.72;5069826;28;20446;-55
2023/11/25 10:38:39;;;;;;;0.30;0.20;;;;;;;6.53;91.97;99795.94;5072702;28;20464;-55
2023/11/25 10:41:06;;;;;;;0.30;0.20;;;;;;;6.61;92.72;99794.03;5058983;28;20471;-55
2023/11/25 10:43:33;;;;;;;0.30;0.20;;;;;;;6.56;92.24;99790.59;5061359;28;20446;-55
2023/11/25 10:46:07;;;;;;;0.30;0.20;;;;;;;6.59;92.48;99787.91;5070657;28;20949;-55
2023/11/25 10:48:38;;;;;;;0.30;0.10;;;;;;;6.66;91.67;99789.50;5066758;28;20454;-55
2023/11/25 10:51:08;;;;;;;0.30;0.20;;;;;;;6.44;92.04;99782.91;5053199;28;20994;-55
2023/11/25 10:53:37;;;;;;;0.30;0.20;;;;;;;6.71;92.24;99786.75;5061317;28;20947;-55
2023/11/25 10:56:04;;;;;;;0.30;0.10;;;;;;;6.78;91.41;99783.09;5059876;28;20458;-55
2023/11/25 10:58:31;;;;;;;0.30;0.20;;;;;;;6.59;91.83;99782.63;5059231;28;20450;-55
2023/11/25 11:00:59;;;;;;;0.30;0.10;;;;;;;6.71;91.35;99770.91;5065306;28;20443;-55
2023/11/25 11:03:58;;;;;;;0.30;0.20;;;;;;;6.99;91.74;99774.72;5059169;28;20580;-55
2023/11/25 11:06:29;;;;;;;0.30;0.20;;;;;;;6.94;91.24;99768.66;5060748;28;20963;-55
2023/11/25 11:09:03;;;;;;;0.30;0.20;;;;;;;6.98;91.96;99764.16;5052416;28;21001;-55
2023/11/25 11:11:47;;;;;;;0.30;0.20;;;;;;;6.86;91.29;99761.81;5063662;28;20485;-55
2023/11/25 11:14:15;;;;;;;0.30;0.20;;;;;;;7.00;91.38;99751.81;5057603;28;20977;-56
2023/11/25 11:16:50;;;;;;;0.30;0.10;;;;;;;6.93;91.75;99742.28;5065132;28;20477;-54
2023/11/25 11:19:22;;;;;;;0.30;0.20;;;;;;;6.93;90.98;99745.78;5069140;28;20849;-55
2023/11/25 11:21:52;;;;;;;0.30;0.13;;;;;;;6.86;91.06;99745.97;5059588;28;20523;-55
2023/11/25 11:24:37;;;;;;;0.30;0.20;;;;;;;6.97;90.45;99741.28;5065143;28;20924;-54
2023/11/25 11:27:13;;;;;;;0.30;0.10;;;;;;;7.01;90.41;99746.50;5061246;28;20460;-55
2023/11/25 11:29:49;;;;;;;0.30;0.20;;;;;;;6.92;90.09;99738.75;5057693;28;20527;-55
2023/11/25 11:32:19;;;;;;;0.30;0.20;;;;;;;7.09;89.93;99739.22;5064699;28;20572;-56
2023/11/25 11:34:46;;;;;;;0.30;0.20;;;;;;;6.92;90.54;99730.84;5058624;28;20482;-56
2023/11/25 11:37:14;;;;;;;0.30;0.20;;;;;;;7.05;89.64;99728.78;5054813;28;20462;-55
2023/11/25 11:39:55;;;;;;;0.30;0.20;;;;;;;7.12;88.76;99728.59;5070501;28;20551;-58
2023/11/25 11:42:29;;;;;;;0.30;0.20;;;;;;;7.02;89.17;99729.72;5061625;28;20478;-55
2023/11/25 11:45:11;;;;;;;0.30;0.20;;;;;;;7.04;89.73;99721.75;5071988;28;20450;-56